createdAt,value
2023-03-02T00:01:41.966Z,39.72
2023-03-02T00:04:37.486Z,37.97
2023-03-02T00:07:08.274Z,42.05
2023-03-02T00:09:35.850Z,39.33
2023-03-02T00:12:04.828Z,34.90
2023-03-02T00:14:31.485Z,43.60
2023-03-02T00:16:58.263Z,39.55
2023-03-02T00:19:24.914Z,40.42
2023-03-02T00:21:51.819Z,42.00
2023-03-02T00:24:18.417Z,48.20
2023-03-02T00:26:45.673Z,42.65
2023-03-02T00:29:12.326Z,44.58
2023-03-02T00:31:39.056Z,42.70
2023-03-02T00:34:05.698Z,40.75
2023-03-02T00:36:32.490Z,38.30
2023-03-02T00:38:59.266Z,40.17
2023-03-02T00:41:25.910Z,49.80
2023-03-02T00:43:52.703Z,42.53
2023-03-02T00:46:22.472Z,46.50
2023-03-02T00:48:49.577Z,47.13
2023-03-02T00:51:16.719Z,43.53
2023-03-02T00:53:43.977Z,45.42
2023-03-02T00:56:11.103Z,49.88
2023-03-02T00:58:37.891Z,44.85
2023-03-02T01:01:08.414Z,45.05
2023-03-02T01:03:35.774Z,43.67
2023-03-02T01:06:03.087Z,44.47
2023-03-02T01:08:29.703Z,42.83
2023-03-02T01:10:56.436Z,38.92
2023-03-02T01:13:23.108Z,45.00
2023-03-02T01:15:49.769Z,41.00
2023-03-02T01:18:16.409Z,43.83
2023-03-02T01:20:43.051Z,43.58
2023-03-02T01:23:09.733Z,46.55
2023-03-02T01:25:38.830Z,43.38
2023-03-02T01:28:05.432Z,48.00
2023-03-02T01:30:32.121Z,38.40
2023-03-02T01:32:58.739Z,45.00
2023-03-02T01:35:25.375Z,44.03
2023-03-02T01:37:52.017Z,45.05
2023-03-02T01:40:18.735Z,43.22
2023-03-02T01:42:56.575Z,43.50
2023-03-02T01:45:48.144Z,45.50
2023-03-02T01:48:18.330Z,48.00
2023-03-02T01:53:15.749Z,39.90
2023-03-02T01:55:44.509Z,45.15
2023-03-02T01:58:13.232Z,42.17
2023-03-02T02:00:40.679Z,44.53
2023-03-02T02:03:28.638Z,46.20
2023-03-02T02:06:17.926Z,43.42
2023-03-02T02:08:46.352Z,44.17
2023-03-02T02:11:13.703Z,40.85
2023-03-02T02:13:40.462Z,40.05
2023-03-02T02:16:07.841Z,41.22
2023-03-02T02:18:38.086Z,41.88
2023-03-02T02:21:06.162Z,41.28
2023-03-02T02:23:57.722Z,46.50
2023-03-02T02:26:29.519Z,43.83
2023-03-02T02:29:02.954Z,43.05
2023-03-02T02:32:00.291Z,41.15
2023-03-02T02:34:48.741Z,46.15
2023-03-02T02:37:22.879Z,42.88
2023-03-02T02:39:50.777Z,46.33
2023-03-02T02:42:39.809Z,45.05
2023-03-02T02:45:17.385Z,44.88
2023-03-02T02:47:44.284Z,39.40
2023-03-02T02:50:39.109Z,47.13
2023-03-02T02:53:17.927Z,38.20
2023-03-02T02:55:47.171Z,40.67
2023-03-02T02:58:23.675Z,45.65
2023-03-02T03:00:50.676Z,43.88
2023-03-02T03:03:36.356Z,44.35
2023-03-02T03:06:05.733Z,46.05
2023-03-02T03:08:50.340Z,45.13
2023-03-02T03:11:23.282Z,46.05
2023-03-02T03:14:05.594Z,45.72
2023-03-02T03:16:34.709Z,44.38
2023-03-02T03:19:25.387Z,44.10
2023-03-02T03:21:54.916Z,44.80
2023-03-02T03:24:22.249Z,42.22
2023-03-02T03:26:49.418Z,47.42
2023-03-02T03:29:18.165Z,43.78
2023-03-02T03:31:44.942Z,44.65
2023-03-02T03:34:11.807Z,46.75
2023-03-02T03:36:38.656Z,42.85
2023-03-02T03:39:06.426Z,44.35
2023-03-02T03:41:33.573Z,44.97
2023-03-02T03:44:00.254Z,42.60
2023-03-02T03:46:27.243Z,40.05
2023-03-02T03:48:54.111Z,45.83
2023-03-02T03:51:21.017Z,45.35
2023-03-02T03:53:59.570Z,45.00
2023-03-02T03:56:33.455Z,43.70
2023-03-02T03:59:07.848Z,45.63
2023-03-02T04:02:00.857Z,44.33
2023-03-02T04:04:33.540Z,44.58
2023-03-02T04:07:00.386Z,50.20
2023-03-02T04:09:27.481Z,42.33
2023-03-02T04:11:55.520Z,48.75
2023-03-02T04:14:24.295Z,44.97
2023-03-02T04:16:51.664Z,45.10
2023-03-02T04:19:18.354Z,42.17
2023-03-02T04:21:48.861Z,44.95
2023-03-02T04:24:17.338Z,48.55
2023-03-02T04:26:44.979Z,48.58
2023-03-02T04:29:12.757Z,45.85
2023-03-02T04:31:40.006Z,48.30
2023-03-02T04:34:08.284Z,43.17
2023-03-02T04:36:38.493Z,46.17
2023-03-02T04:39:06.572Z,40.35
2023-03-02T04:41:33.634Z,44.28
2023-03-02T04:44:00.227Z,48.35
2023-03-02T04:46:27.937Z,44.80
2023-03-02T04:48:55.134Z,46.03
2023-03-02T04:51:29.492Z,46.50
2023-03-02T04:53:59.241Z,45.78
2023-03-02T04:56:26.013Z,44.92
2023-03-02T04:58:52.697Z,49.92
2023-03-02T05:01:20.004Z,47.70
2023-03-02T05:03:47.434Z,44.63
2023-03-02T05:06:15.004Z,45.08
2023-03-02T05:08:41.827Z,46.25
2023-03-02T05:11:09.079Z,46.30
2023-03-02T05:13:35.857Z,53.42
2023-03-02T05:16:02.965Z,53.65
2023-03-02T05:18:29.969Z,46.35
2023-03-02T05:20:57.202Z,55.90
2023-03-02T05:23:25.473Z,43.30
2023-03-02T05:25:54.629Z,50.83
2023-03-02T05:28:23.255Z,47.80
2023-03-02T05:30:50.576Z,52.92
2023-03-02T05:33:18.444Z,47.30
2023-03-02T05:35:45.792Z,48.83
2023-03-02T05:38:12.877Z,48.75
2023-03-02T05:40:40.594Z,49.00
2023-03-02T05:43:08.634Z,49.53
2023-03-02T05:45:37.950Z,53.03
2023-03-02T05:48:05.696Z,46.00
2023-03-02T05:50:33.228Z,45.97
2023-03-02T05:53:02.507Z,50.78
2023-03-02T05:55:29.858Z,46.45
2023-03-02T05:57:56.818Z,50.50
2023-03-02T06:00:24.161Z,48.70
2023-03-02T06:02:50.900Z,48.38
2023-03-02T06:05:19.630Z,52.80
2023-03-02T06:07:46.439Z,49.05
2023-03-02T06:10:14.208Z,50.78
2023-03-02T06:12:41.206Z,48.33
2023-03-02T06:15:09.113Z,48.33
2023-03-02T06:17:35.950Z,49.78
2023-03-02T06:20:06.223Z,44.47
2023-03-02T06:22:32.809Z,52.75
2023-03-02T06:24:59.501Z,49.50
2023-03-02T06:27:26.151Z,49.42
2023-03-02T06:29:53.381Z,49.97
2023-03-02T06:32:20.239Z,49.60
2023-03-02T06:34:47.002Z,46.67
2023-03-02T06:37:13.781Z,48.80
2023-03-02T06:39:40.585Z,48.00
2023-03-02T06:42:07.290Z,51.75
2023-03-02T06:44:33.964Z,51.00
2023-03-02T06:47:00.609Z,48.28
2023-03-02T06:49:27.451Z,43.88
2023-03-02T06:51:54.103Z,46.97
2023-03-02T06:54:22.604Z,44.72
2023-03-02T06:56:50.452Z,48.83
2023-03-02T06:59:17.140Z,47.70
2023-03-02T07:01:43.943Z,47.50
2023-03-02T07:04:10.621Z,50.67
2023-03-02T07:06:37.323Z,50.42
2023-03-02T07:09:04.450Z,52.38
2023-03-02T07:11:31.221Z,58.42
2023-03-02T07:14:00.489Z,49.60
2023-03-02T07:16:27.754Z,49.33
2023-03-02T07:18:54.640Z,46.00
2023-03-02T07:21:21.411Z,44.47
2023-03-02T07:23:48.159Z,50.75
2023-03-02T07:26:14.817Z,45.55
2023-03-02T07:28:43.394Z,44.78
2023-03-02T07:31:11.557Z,49.42
2023-03-02T07:33:39.296Z,43.25
2023-03-02T07:36:07.555Z,44.05
2023-03-02T07:38:36.140Z,41.22
2023-03-02T07:41:06.994Z,39.75
2023-03-02T07:43:35.619Z,50.20
2023-03-02T07:46:04.403Z,46.05
2023-03-02T07:48:32.329Z,44.70
2023-03-02T07:51:04.004Z,45.80
2023-03-02T07:53:31.341Z,46.55
2023-03-02T07:55:58.192Z,44.55
2023-03-02T07:58:24.999Z,46.35
2023-03-02T08:00:51.674Z,43.17
2023-03-02T08:03:18.279Z,46.03
2023-03-02T08:05:44.943Z,49.47
2023-03-02T08:08:11.673Z,42.08
2023-03-02T08:10:38.445Z,50.03
2023-03-02T08:13:05.283Z,40.67
2023-03-02T08:15:32.008Z,46.33
2023-03-02T08:17:58.672Z,43.38
2023-03-02T08:20:25.383Z,43.53
2023-03-02T08:22:52.404Z,43.05
2023-03-02T08:25:19.084Z,44.67
2023-03-02T08:27:46.120Z,42.90
2023-03-02T08:30:13.688Z,47.72
2023-03-02T08:32:40.737Z,44.55
2023-03-02T08:35:07.929Z,41.60
2023-03-02T08:37:34.734Z,45.03
2023-03-02T08:40:01.440Z,46.25
2023-03-02T08:42:28.358Z,45.40
2023-03-02T08:44:55.154Z,44.13
2023-03-02T08:47:21.823Z,42.00
2023-03-02T08:49:49.803Z,42.65
2023-03-02T08:52:16.466Z,42.72
2023-03-02T08:54:43.278Z,46.92
2023-03-02T08:57:13.128Z,42.75
2023-03-02T08:59:40.058Z,45.65
2023-03-02T09:02:07.315Z,43.78
2023-03-02T09:04:34.196Z,47.25
2023-03-02T09:07:00.968Z,47.88
2023-03-02T09:09:27.545Z,42.25
2023-03-02T09:11:54.248Z,45.25
2023-03-02T09:14:21.094Z,44.97
2023-03-02T09:16:47.826Z,40.55
2023-03-02T09:19:14.532Z,44.42
2023-03-02T09:21:41.206Z,45.00
2023-03-02T09:24:08.112Z,48.38
2023-03-02T09:26:35.048Z,45.63
2023-03-02T09:29:01.757Z,42.78
2023-03-02T09:31:30.480Z,47.03
2023-03-02T09:33:57.418Z,42.65
2023-03-02T09:36:25.600Z,45.45
2023-03-02T09:38:52.906Z,41.95
2023-03-02T09:41:19.601Z,46.50
2023-03-02T09:43:52.114Z,42.65
2023-03-02T09:46:27.629Z,42.95
2023-03-02T09:49:08.513Z,43.40
2023-03-02T09:52:04.795Z,37.08
2023-03-02T09:54:32.257Z,46.45
2023-03-02T09:56:59.806Z,46.63
2023-03-02T09:59:32.878Z,47.60
2023-03-02T10:02:24.395Z,42.13
2023-03-02T10:04:54.522Z,47.58
2023-03-02T10:10:25.116Z,48.75
2023-03-02T10:13:13.647Z,40.90
2023-03-02T10:15:48.699Z,42.75
2023-03-02T10:18:21.319Z,46.95
2023-03-02T10:21:12.776Z,45.25
2023-03-02T10:23:46.275Z,42.50
2023-03-02T10:26:27.507Z,42.90
2023-03-02T10:29:31.127Z,45.25
2023-03-02T10:32:16.270Z,43.85
2023-03-02T10:34:42.945Z,48.33
2023-03-02T10:37:16.778Z,44.95
2023-03-02T10:39:43.456Z,40.50
2023-03-02T10:42:37.817Z,51.15
2023-03-02T10:45:28.281Z,46.03
2023-03-02T10:48:02.774Z,45.55
2023-03-02T10:50:30.612Z,42.58
2023-03-02T10:53:01.105Z,51.72
2023-03-02T10:55:29.220Z,46.15
2023-03-02T10:58:45.693Z,49.28
2023-03-02T11:01:18.424Z,50.47
2023-03-02T11:04:02.093Z,44.92
2023-03-02T11:06:29.706Z,45.60
2023-03-02T11:09:05.948Z,45.17
2023-03-02T11:11:33.464Z,49.13
2023-03-02T11:14:15.752Z,44.75
2023-03-02T11:16:42.512Z,43.70
2023-03-02T11:19:27.761Z,46.35
2023-03-02T11:22:37.139Z,46.72
2023-03-02T11:25:08.109Z,49.15
2023-03-02T11:27:38.982Z,47.15
2023-03-02T11:30:15.860Z,40.58
2023-03-02T11:33:00.536Z,43.58
2023-03-02T11:35:32.522Z,48.30
2023-03-02T11:38:32.518Z,45.38
2023-03-02T11:41:15.275Z,43.47
2023-03-02T11:43:41.943Z,48.38
2023-03-02T11:46:24.702Z,46.60
2023-03-02T11:48:57.196Z,47.22
2023-03-02T11:51:37.838Z,44.80
2023-03-02T11:54:23.780Z,42.50
2023-03-02T11:56:50.658Z,46.28
2023-03-02T11:59:21.198Z,47.15
2023-03-02T12:04:34.109Z,44.13
2023-03-02T12:07:15.599Z,42.85
2023-03-02T12:09:42.895Z,42.65
2023-03-02T12:12:26.692Z,46.38
2023-03-02T12:14:53.386Z,41.90
2023-03-02T12:17:32.344Z,40.03
2023-03-02T12:20:07.925Z,46.28
2023-03-02T12:22:36.111Z,49.75
2023-03-02T12:25:21.104Z,43.47
2023-03-02T12:27:49.942Z,43.47
2023-03-02T12:30:23.690Z,42.13
2023-03-02T12:33:10.471Z,42.70
2023-03-02T12:35:38.494Z,44.40
2023-03-02T12:38:22.797Z,39.78
2023-03-02T12:41:20.398Z,45.30
2023-03-02T12:44:27.778Z,44.70
2023-03-02T12:46:56.323Z,50.90
2023-03-02T12:49:46.606Z,43.22
2023-03-02T12:55:11.595Z,45.63
2023-03-02T12:57:46.519Z,49.25
2023-03-02T13:00:17.982Z,45.00
2023-03-02T13:02:50.520Z,46.67
2023-03-02T13:05:33.455Z,49.10
2023-03-02T13:08:07.432Z,42.20
2023-03-02T13:10:49.849Z,46.78
2023-03-02T13:13:20.916Z,44.20
2023-03-02T13:15:49.022Z,43.83
2023-03-02T13:18:16.577Z,45.60
2023-03-02T13:20:43.484Z,41.63
2023-03-02T13:23:14.173Z,45.28
2023-03-02T13:26:01.389Z,43.35
2023-03-02T13:28:36.371Z,43.22
2023-03-02T13:31:06.349Z,51.25
2023-03-02T13:33:35.959Z,45.33
2023-03-02T13:36:04.022Z,48.65
2023-03-02T13:38:35.578Z,46.88
2023-03-02T13:41:02.285Z,48.33
2023-03-02T13:43:36.211Z,46.58
2023-03-02T13:46:07.008Z,50.58
2023-03-02T13:48:34.244Z,45.97
2023-03-02T13:51:14.635Z,42.55
2023-03-02T13:56:13.386Z,40.95
2023-03-02T13:58:40.131Z,48.00
2023-03-02T14:01:07.543Z,49.80
2023-03-02T14:03:34.283Z,44.75
2023-03-02T14:06:01.078Z,47.47
2023-03-02T14:08:27.775Z,43.00
2023-03-02T14:10:57.365Z,41.50
2023-03-02T14:13:32.665Z,48.63
2023-03-02T14:15:59.357Z,45.63
2023-03-02T14:18:38.299Z,49.25
2023-03-02T14:21:08.412Z,46.33
2023-03-02T14:23:35.159Z,42.97
2023-03-02T14:26:04.379Z,43.88
2023-03-02T14:28:35.845Z,42.10
2023-03-02T14:31:02.522Z,47.92
2023-03-02T14:33:29.252Z,46.67
2023-03-02T14:35:58.149Z,45.55
2023-03-02T14:38:27.002Z,42.80
2023-03-02T14:40:54.009Z,47.22
2023-03-02T14:43:21.302Z,44.38
2023-03-02T14:45:48.103Z,45.53
2023-03-02T14:48:14.963Z,50.15
2023-03-02T14:50:45.636Z,55.13
2023-03-02T14:53:28.194Z,43.17
2023-03-02T14:55:55.065Z,47.30
2023-03-02T14:58:33.396Z,46.30
2023-03-02T15:01:00.886Z,48.00
2023-03-02T15:03:27.862Z,48.45
2023-03-02T15:06:01.304Z,45.53
2023-03-02T15:08:29.090Z,45.80
2023-03-02T15:10:55.755Z,49.85
2023-03-02T15:13:22.432Z,47.97
2023-03-02T15:15:49.945Z,48.17
2023-03-02T15:18:19.592Z,46.53
2023-03-02T15:20:46.504Z,47.45
2023-03-02T15:23:13.195Z,41.65
2023-03-02T15:25:39.821Z,48.97
2023-03-02T15:28:06.444Z,48.20
2023-03-02T15:30:33.211Z,50.88
2023-03-02T15:32:59.820Z,48.63
2023-03-02T15:35:27.994Z,51.95
2023-03-02T15:37:58.049Z,51.90
2023-03-02T15:40:25.709Z,45.60
2023-03-02T15:42:53.091Z,49.92
2023-03-02T15:45:19.751Z,48.28
2023-03-02T15:47:46.416Z,48.97
2023-03-02T15:50:13.064Z,43.83
2023-03-02T15:52:39.829Z,44.47
2023-03-02T15:55:06.824Z,44.40
2023-03-02T15:57:38.882Z,50.63
2023-03-02T16:00:06.441Z,45.25
2023-03-02T16:02:33.171Z,52.80
2023-03-02T16:04:59.830Z,49.13
2023-03-02T16:07:26.567Z,49.75
2023-03-02T16:09:53.180Z,48.05
2023-03-02T16:12:23.248Z,46.90
2023-03-02T16:14:49.938Z,50.17
2023-03-02T16:17:18.630Z,47.72
2023-03-02T16:19:45.860Z,46.30
2023-03-02T16:22:12.570Z,47.28
2023-03-02T16:24:40.925Z,50.70
2023-03-02T16:27:08.585Z,50.53
2023-03-02T16:29:35.343Z,49.38
2023-03-02T16:32:02.063Z,53.30
2023-03-02T16:34:28.841Z,53.42
2023-03-02T16:36:55.455Z,53.45
2023-03-02T16:39:22.116Z,54.95
2023-03-02T16:41:48.820Z,54.40
2023-03-02T16:44:16.137Z,61.22
2023-03-02T16:46:43.498Z,55.08
2023-03-02T16:49:11.695Z,54.83
2023-03-02T16:51:39.159Z,55.92
2023-03-02T16:54:05.841Z,55.15
2023-03-02T16:56:32.570Z,51.20
2023-03-02T16:59:00.346Z,54.85
2023-03-02T17:01:28.127Z,59.03
2023-03-02T17:03:55.343Z,50.83
2023-03-02T17:06:23.535Z,54.88
2023-03-02T17:08:50.760Z,55.50
2023-03-02T17:11:18.096Z,50.65
2023-03-02T17:13:44.728Z,57.95
2023-03-02T17:16:11.606Z,60.97
2023-03-02T17:18:38.249Z,63.78
2023-03-02T17:21:05.537Z,64.45
2023-03-02T17:23:32.448Z,59.20
2023-03-02T17:25:59.097Z,57.17
2023-03-02T17:28:25.813Z,63.15
2023-03-02T17:30:52.493Z,63.75
2023-03-02T17:33:19.248Z,58.45
2023-03-02T17:35:46.320Z,56.35
2023-03-02T17:38:14.365Z,54.75
2023-03-02T17:40:41.628Z,52.38
2023-03-02T17:43:08.345Z,58.92
2023-03-02T17:45:35.431Z,128.93
2023-03-02T17:48:02.116Z,187.88
2023-03-02T17:50:31.683Z,198.63
2023-03-02T17:52:59.602Z,213.45
2023-03-02T17:55:26.342Z,132.80
2023-03-02T17:57:53.014Z,76.35
2023-03-02T18:00:21.768Z,57.65
2023-03-02T18:02:48.895Z,54.75
2023-03-02T18:05:15.573Z,53.55
2023-03-02T18:07:42.197Z,48.72
2023-03-02T18:10:09.431Z,54.03
2023-03-02T18:12:36.259Z,51.95
2023-03-02T18:15:03.443Z,57.13
2023-03-02T18:17:30.244Z,58.85
2023-03-02T18:19:56.907Z,56.08
2023-03-02T18:22:23.671Z,55.65
2023-03-02T18:24:51.817Z,53.00
2023-03-02T18:27:18.604Z,56.97
2023-03-02T18:29:45.300Z,51.70
2023-03-02T18:32:12.749Z,52.63
2023-03-02T18:34:39.662Z,55.47
2023-03-02T18:37:06.594Z,48.80
2023-03-02T18:39:33.267Z,51.17
2023-03-02T18:42:00.130Z,53.05
2023-03-02T18:44:28.353Z,49.92
2023-03-02T18:46:55.797Z,49.05
2023-03-02T18:49:23.056Z,50.22
2023-03-02T18:51:49.897Z,56.70
2023-03-02T18:54:16.706Z,49.65
2023-03-02T18:56:43.421Z,49.90
2023-03-02T18:59:11.090Z,53.30
2023-03-02T19:01:38.068Z,52.25
2023-03-02T19:04:05.681Z,46.65
2023-03-02T19:06:32.977Z,53.85
2023-03-02T19:08:59.656Z,51.53
2023-03-02T19:11:26.386Z,55.58
2023-03-02T19:13:53.038Z,50.95
2023-03-02T19:16:19.828Z,49.33
2023-03-02T19:18:46.623Z,55.58
2023-03-02T19:21:13.463Z,48.95
2023-03-02T19:23:41.070Z,52.92
2023-03-02T19:26:08.853Z,51.20
2023-03-02T19:28:37.180Z,52.97
2023-03-02T19:31:08.852Z,51.75
2023-03-02T19:33:35.944Z,54.30
2023-03-02T19:36:03.356Z,81.78
2023-03-02T19:38:30.151Z,67.65
2023-03-02T19:40:58.253Z,56.20
2023-03-02T19:43:26.379Z,55.97
2023-03-02T19:45:53.441Z,49.85
2023-03-02T19:48:20.292Z,57.83
2023-03-02T19:50:47.540Z,50.67
2023-03-02T19:53:14.730Z,62.03
2023-03-02T19:55:42.505Z,62.03
2023-03-02T19:58:11.147Z,56.78
2023-03-02T20:00:38.805Z,55.78
2023-03-02T20:03:06.240Z,57.78
2023-03-02T20:05:33.105Z,58.20
2023-03-02T20:07:59.984Z,55.88
2023-03-02T20:10:30.195Z,56.22
2023-03-02T20:15:23.785Z,55.97
2023-03-02T20:17:50.449Z,57.10
2023-03-02T20:20:17.220Z,58.65
2023-03-02T20:22:46.893Z,59.83
2023-03-02T20:25:14.513Z,49.88
2023-03-02T20:27:41.254Z,59.40
2023-03-02T20:30:09.801Z,56.63
2023-03-02T20:32:36.745Z,53.85
2023-03-02T20:35:03.821Z,50.35
2023-03-02T20:37:30.501Z,56.17
2023-03-02T20:39:57.250Z,57.25
2023-03-02T20:42:23.977Z,48.70
2023-03-02T20:44:51.900Z,59.42
2023-03-02T20:47:18.744Z,53.05
2023-03-02T20:49:45.447Z,55.40
2023-03-02T20:52:12.141Z,54.55
2023-03-02T20:54:42.406Z,54.08
2023-03-02T20:59:37.368Z,54.08
2023-03-02T21:02:05.129Z,50.17
2023-03-02T21:04:33.094Z,50.55
2023-03-02T21:07:00.139Z,54.88
2023-03-02T21:09:26.785Z,53.40
2023-03-02T21:11:54.803Z,52.90
2023-03-02T21:14:21.512Z,49.30
2023-03-02T21:16:48.138Z,57.35
2023-03-02T21:19:18.095Z,48.92
2023-03-02T21:21:45.631Z,50.70
2023-03-02T21:24:16.764Z,56.05
2023-03-02T21:26:48.447Z,47.45
2023-03-02T21:29:17.662Z,54.70
2023-03-02T21:31:44.649Z,50.50
2023-03-02T21:34:14.428Z,50.95
2023-03-02T21:36:41.406Z,50.67
2023-03-02T21:39:09.538Z,54.03
2023-03-02T21:41:36.309Z,52.35
2023-03-02T21:44:05.551Z,50.40
2023-03-02T21:46:34.406Z,48.30
2023-03-02T21:49:01.072Z,56.60
2023-03-02T21:51:27.867Z,57.92
2023-03-02T21:53:54.558Z,50.35
2023-03-02T21:56:24.135Z,53.80
2023-03-02T21:58:53.225Z,51.13
2023-03-02T22:01:20.692Z,51.72
2023-03-02T22:03:47.520Z,53.08
2023-03-02T22:06:33.743Z,50.75
2023-03-02T22:09:01.626Z,51.67
2023-03-02T22:11:34.790Z,50.10
2023-03-02T22:14:09.941Z,52.92
2023-03-02T22:16:39.113Z,52.78
2023-03-02T22:19:25.439Z,61.88
2023-03-02T22:21:54.461Z,50.55
2023-03-02T22:24:27.484Z,66.10
2023-03-02T22:27:13.559Z,50.00
2023-03-02T22:29:45.818Z,56.65
2023-03-02T22:32:40.817Z,56.58
2023-03-02T22:35:27.211Z,56.80
2023-03-02T22:38:12.555Z,51.40
2023-03-02T22:40:41.198Z,54.53
2023-03-02T22:43:31.578Z,55.65
2023-03-02T22:46:19.921Z,58.20
2023-03-02T22:48:48.959Z,63.30
2023-03-02T22:51:23.157Z,56.63
2023-03-02T22:53:51.023Z,54.85
2023-03-02T22:56:29.060Z,56.20
2023-03-02T22:58:59.022Z,61.10
2023-03-02T23:01:42.157Z,52.30
2023-03-02T23:04:08.875Z,64.93
2023-03-02T23:06:46.368Z,58.00
2023-03-02T23:09:16.955Z,62.40
2023-03-02T23:11:44.815Z,59.25
2023-03-02T23:14:23.882Z,61.60
2023-03-02T23:16:54.955Z,56.67
2023-03-02T23:19:21.596Z,57.40
2023-03-02T23:21:49.491Z,58.35
2023-03-02T23:24:18.901Z,60.28
2023-03-02T23:26:45.583Z,57.08
2023-03-02T23:29:12.561Z,57.33
2023-03-02T23:31:39.218Z,57.95
2023-03-02T23:34:05.929Z,57.45
2023-03-02T23:36:32.626Z,60.50
2023-03-02T23:38:59.321Z,56.40
2023-03-02T23:41:26.829Z,56.65
2023-03-02T23:43:53.639Z,63.10
2023-03-02T23:46:20.339Z,58.10
2023-03-02T23:48:47.951Z,58.13
2023-03-02T23:51:15.627Z,57.20
2023-03-02T23:53:42.340Z,57.08
2023-03-02T23:56:08.960Z,58.55
2023-03-02T23:58:35.640Z,54.00
